createdAt,value
2023-12-26T00:01:01.700Z,5.88
2023-12-26T00:03:29.657Z,5.85
2023-12-26T00:05:57.638Z,5.30
2023-12-26T00:08:25.616Z,5.25
2023-12-26T00:10:53.507Z,5.57
2023-12-26T00:13:21.604Z,6.97
2023-12-26T00:15:49.466Z,7.07
2023-12-26T00:18:18.957Z,8.23
2023-12-26T00:20:47.090Z,5.95
2023-12-26T00:23:15.637Z,6.80
2023-12-26T00:25:45.407Z,6.95
2023-12-26T00:28:15.102Z,5.72
2023-12-26T00:30:43.101Z,5.50
2023-12-26T00:33:11.122Z,4.30
2023-12-26T00:35:40.448Z,2.50
2023-12-26T00:38:08.344Z,3.30
2023-12-26T00:40:37.488Z,3.33
2023-12-26T00:43:05.739Z,3.33
2023-12-26T00:45:33.637Z,3.13
2023-12-26T00:48:01.706Z,2.83
2023-12-26T00:50:29.794Z,2.50
2023-12-26T00:52:59.665Z,2.70
2023-12-26T00:55:27.807Z,2.53
2023-12-26T00:57:55.696Z,2.67
2023-12-26T01:00:23.962Z,2.50
2023-12-26T01:02:52.216Z,2.45
2023-12-26T01:05:20.572Z,2.33
2023-12-26T01:07:48.585Z,2.95
2023-12-26T01:10:17.958Z,3.15
2023-12-26T01:12:45.798Z,2.67
2023-12-26T01:15:13.874Z,2.88
2023-12-26T01:17:42.013Z,2.08
2023-12-26T01:20:11.638Z,1.88
2023-12-26T01:22:39.532Z,2.72
2023-12-26T01:25:07.839Z,2.60
2023-12-26T01:27:40.153Z,3.70
2023-12-26T01:30:09.152Z,3.53
2023-12-26T01:32:37.344Z,3.15
2023-12-26T01:35:05.644Z,3.97
2023-12-26T01:37:33.536Z,4.70
2023-12-26T01:40:01.429Z,4.70
2023-12-26T01:42:29.491Z,4.63
2023-12-26T01:44:58.703Z,4.75
2023-12-26T01:47:26.821Z,3.50
2023-12-26T01:49:55.087Z,4.22
2023-12-26T01:52:23.117Z,4.90
2023-12-26T01:54:50.998Z,3.35
2023-12-26T01:57:19.721Z,3.58
2023-12-26T01:59:47.655Z,2.97
2023-12-26T02:02:17.796Z,3.30
2023-12-26T02:04:45.706Z,3.35
2023-12-26T02:07:13.565Z,3.35
2023-12-26T02:09:41.821Z,3.70
2023-12-26T02:12:10.319Z,3.90
2023-12-26T02:14:38.650Z,3.13
2023-12-26T02:17:11.552Z,3.47
2023-12-26T02:19:44.519Z,3.55
2023-12-26T02:22:12.564Z,3.35
2023-12-26T02:24:43.785Z,3.50
2023-12-26T02:27:16.052Z,3.20
2023-12-26T02:29:45.291Z,3.03
2023-12-26T02:32:15.872Z,3.38
2023-12-26T02:34:43.951Z,3.20
2023-12-26T02:37:11.963Z,2.80
2023-12-26T02:39:44.477Z,2.97
2023-12-26T02:42:12.626Z,3.10
2023-12-26T02:44:40.561Z,3.50
2023-12-26T02:47:08.467Z,3.50
2023-12-26T02:49:36.588Z,3.30
2023-12-26T02:52:04.801Z,2.63
2023-12-26T02:54:32.730Z,3.45
2023-12-26T02:57:01.985Z,2.58
2023-12-26T02:59:29.879Z,2.92
2023-12-26T03:01:58.892Z,2.80
2023-12-26T03:04:27.330Z,2.83
2023-12-26T03:06:55.480Z,3.00
2023-12-26T03:09:24.250Z,2.95
2023-12-26T03:11:52.090Z,3.80
2023-12-26T03:14:21.529Z,3.00
2023-12-26T03:16:50.211Z,2.92
2023-12-26T03:19:18.249Z,3.50
2023-12-26T03:21:46.370Z,2.78
2023-12-26T03:24:14.295Z,2.55
2023-12-26T03:26:42.359Z,3.00
2023-12-26T03:29:10.329Z,3.05
2023-12-26T03:31:46.148Z,3.33
2023-12-26T03:34:14.527Z,3.70
2023-12-26T03:36:46.129Z,2.60
2023-12-26T03:39:14.096Z,3.00
2023-12-26T03:41:42.129Z,2.78
2023-12-26T03:44:10.020Z,2.60
2023-12-26T03:46:40.604Z,3.13
2023-12-26T03:49:09.941Z,2.50
2023-12-26T03:51:37.999Z,3.00
2023-12-26T03:54:06.175Z,3.10
2023-12-26T03:56:38.164Z,2.47
2023-12-26T03:59:07.292Z,2.80
2023-12-26T04:01:36.310Z,2.60
2023-12-26T04:04:04.767Z,2.40
2023-12-26T04:06:34.184Z,2.50
2023-12-26T04:09:02.020Z,2.35
2023-12-26T04:11:31.395Z,2.97
2023-12-26T04:13:59.202Z,2.47
2023-12-26T04:16:27.064Z,2.33
2023-12-26T04:18:54.224Z,2.43
2023-12-26T04:21:22.175Z,3.08
2023-12-26T04:23:51.469Z,2.60
2023-12-26T04:26:19.414Z,2.72
2023-12-26T04:28:47.333Z,2.40
2023-12-26T04:31:15.217Z,2.38
2023-12-26T04:33:43.119Z,2.45
2023-12-26T04:36:11.047Z,3.22
2023-12-26T04:38:39.063Z,2.43
2023-12-26T04:41:13.212Z,2.40
2023-12-26T04:43:41.305Z,2.67
2023-12-26T04:46:09.173Z,2.43
2023-12-26T04:48:40.076Z,2.53
2023-12-26T04:51:08.262Z,3.78
2023-12-26T04:53:38.427Z,3.55
2023-12-26T04:56:06.527Z,2.90
2023-12-26T04:58:35.837Z,2.70
2023-12-26T05:01:03.731Z,3.27
2023-12-26T05:03:31.694Z,4.13
2023-12-26T05:05:59.640Z,3.08
2023-12-26T05:08:27.530Z,3.00
2023-12-26T05:10:55.321Z,3.53
2023-12-26T05:13:23.188Z,3.87
2023-12-26T05:15:52.605Z,3.50
2023-12-26T05:18:20.720Z,3.37
2023-12-26T05:20:49.132Z,3.90
2023-12-26T05:23:16.935Z,3.73
2023-12-26T05:25:44.892Z,3.60
2023-12-26T05:28:12.748Z,3.30
2023-12-26T05:30:40.684Z,3.60
2023-12-26T05:33:10.499Z,3.00
2023-12-26T05:35:38.689Z,3.57
2023-12-26T05:38:06.576Z,3.65
2023-12-26T05:40:34.550Z,2.90
2023-12-26T05:43:02.652Z,3.70
2023-12-26T05:45:33.499Z,3.67
2023-12-26T05:48:01.734Z,3.20
2023-12-26T05:50:31.160Z,3.33
2023-12-26T05:52:59.170Z,3.47
2023-12-26T05:55:27.111Z,3.67
2023-12-26T05:57:55.002Z,3.77
2023-12-26T06:00:22.859Z,3.37
2023-12-26T06:02:50.746Z,4.00
2023-12-26T06:05:18.600Z,3.53
2023-12-26T06:07:47.895Z,3.23
2023-12-26T06:10:16.092Z,3.60
2023-12-26T06:12:43.839Z,3.47
2023-12-26T06:15:11.940Z,3.57
2023-12-26T06:17:39.972Z,3.80
2023-12-26T06:20:09.378Z,3.40
2023-12-26T06:22:37.670Z,3.63
2023-12-26T06:25:07.260Z,3.40
2023-12-26T06:27:36.396Z,3.67
2023-12-26T06:30:05.307Z,3.60
2023-12-26T06:32:35.596Z,3.70
2023-12-26T06:35:05.926Z,3.90
2023-12-26T06:37:34.032Z,3.77
2023-12-26T06:40:01.949Z,3.67
2023-12-26T06:42:31.180Z,3.83
2023-12-26T06:44:59.157Z,3.67
2023-12-26T06:47:27.127Z,3.67
2023-12-26T06:49:55.066Z,3.53
2023-12-26T06:52:22.932Z,3.90
2023-12-26T06:54:50.769Z,3.57
2023-12-26T06:57:18.796Z,3.47
2023-12-26T06:59:50.200Z,3.57
2023-12-26T07:02:18.233Z,3.70
2023-12-26T07:04:46.638Z,3.80
2023-12-26T07:07:14.747Z,3.57
2023-12-26T07:09:42.637Z,3.30
2023-12-26T07:12:10.753Z,4.33
2023-12-26T07:14:38.958Z,3.90
2023-12-26T07:17:08.236Z,3.57
2023-12-26T07:19:36.792Z,4.10
2023-12-26T07:22:04.994Z,3.30
2023-12-26T07:24:32.886Z,3.50
2023-12-26T07:27:00.877Z,3.97
2023-12-26T07:29:30.109Z,3.60
2023-12-26T07:31:58.017Z,3.87
2023-12-26T07:34:27.322Z,3.37
2023-12-26T07:36:55.180Z,3.60
2023-12-26T07:39:23.160Z,3.33
2023-12-26T07:41:51.046Z,4.17
2023-12-26T07:44:18.923Z,4.00
2023-12-26T07:46:46.801Z,3.70
2023-12-26T07:49:14.818Z,4.40
2023-12-26T07:51:44.160Z,4.47
2023-12-26T07:54:12.009Z,3.40
2023-12-26T07:56:40.031Z,3.97
2023-12-26T07:59:07.978Z,3.33
2023-12-26T08:01:37.377Z,3.77
2023-12-26T08:04:05.673Z,3.47
2023-12-26T08:06:33.697Z,3.97
2023-12-26T08:09:03.613Z,3.80
2023-12-26T08:11:31.627Z,3.80
2023-12-26T08:13:59.483Z,3.90
2023-12-26T08:16:27.392Z,3.37
2023-12-26T08:18:58.316Z,4.50
2023-12-26T08:21:26.447Z,3.43
2023-12-26T08:23:54.360Z,4.17
2023-12-26T08:26:31.721Z,3.73
2023-12-26T08:29:00.074Z,4.20
2023-12-26T08:31:28.021Z,3.83
2023-12-26T08:33:56.045Z,3.43
2023-12-26T08:36:24.028Z,3.73
2023-12-26T08:38:52.020Z,4.10
2023-12-26T08:41:19.853Z,4.03
2023-12-26T08:43:49.117Z,4.60
2023-12-26T08:46:17.723Z,3.90
2023-12-26T08:48:45.702Z,4.10
2023-12-26T08:51:13.842Z,4.28
2023-12-26T08:53:41.792Z,3.80
2023-12-26T08:56:09.781Z,3.93
2023-12-26T08:58:38.224Z,4.20
2023-12-26T09:01:10.312Z,3.60
2023-12-26T09:03:42.677Z,3.87
2023-12-26T09:06:12.175Z,3.50
2023-12-26T09:08:40.287Z,3.80
2023-12-26T09:11:08.209Z,3.75
2023-12-26T09:13:36.538Z,4.43
2023-12-26T09:16:04.671Z,4.33
2023-12-26T09:18:34.165Z,4.65
2023-12-26T09:21:02.278Z,4.57
2023-12-26T09:23:30.242Z,4.80
2023-12-26T09:25:58.097Z,3.88
2023-12-26T09:28:26.041Z,4.03
2023-12-26T09:30:53.911Z,4.97
2023-12-26T09:33:22.201Z,4.17
2023-12-26T09:35:51.506Z,4.93
2023-12-26T09:38:19.765Z,4.20
2023-12-26T09:40:49.166Z,3.70
2023-12-26T09:43:17.351Z,3.65
2023-12-26T09:45:45.248Z,3.97
2023-12-26T09:48:13.957Z,4.00
2023-12-26T09:50:42.129Z,4.53
2023-12-26T09:53:13.846Z,4.10
2023-12-26T09:55:41.763Z,3.97
2023-12-26T09:58:09.764Z,3.93
2023-12-26T10:00:41.798Z,4.27
2023-12-26T10:03:10.088Z,4.60
2023-12-26T10:05:38.007Z,4.63
2023-12-26T10:08:06.464Z,4.30
2023-12-26T10:10:38.840Z,4.88
2023-12-26T10:13:06.955Z,4.03
2023-12-26T10:15:35.767Z,4.17
2023-12-26T10:18:03.861Z,3.50
2023-12-26T10:20:35.606Z,3.90
2023-12-26T10:23:04.935Z,4.53
2023-12-26T10:25:35.078Z,3.72
2023-12-26T10:28:05.258Z,3.80
2023-12-26T10:30:33.536Z,3.15
2023-12-26T10:33:02.545Z,3.60
2023-12-26T10:35:31.183Z,3.83
2023-12-26T10:37:59.204Z,3.58
2023-12-26T10:40:27.565Z,3.47
2023-12-26T10:42:55.685Z,3.50
2023-12-26T10:45:26.297Z,3.92
2023-12-26T10:47:56.749Z,3.43
2023-12-26T10:50:25.712Z,4.35
2023-12-26T10:53:17.673Z,3.65
2023-12-26T10:55:47.481Z,3.50
2023-12-26T10:58:20.827Z,3.72
2023-12-26T11:01:43.843Z,4.07
2023-12-26T11:05:06.844Z,3.88
2023-12-26T11:08:29.936Z,3.80
2023-12-26T11:11:53.080Z,4.20
2023-12-26T11:15:16.091Z,3.40
2023-12-26T11:18:39.142Z,4.05
2023-12-26T11:22:01.952Z,3.15
2023-12-26T11:25:25.006Z,3.22
2023-12-26T11:28:48.199Z,3.08
2023-12-26T11:32:11.262Z,3.45
2023-12-26T11:35:34.055Z,3.90
2023-12-26T11:38:57.069Z,3.47
2023-12-26T11:42:23.599Z,4.00
2023-12-26T11:45:46.742Z,3.50
2023-12-26T11:49:09.927Z,4.07
2023-12-26T11:52:32.717Z,3.65
2023-12-26T11:55:55.485Z,3.35
2023-12-26T11:59:18.474Z,3.97
2023-12-26T12:02:41.597Z,3.50
2023-12-26T12:06:04.795Z,4.40
2023-12-26T12:09:28.208Z,3.33
2023-12-26T12:12:51.092Z,4.30
2023-12-26T12:16:14.066Z,3.53
2023-12-26T12:19:36.837Z,3.03
2023-12-26T12:22:59.963Z,3.65
2023-12-26T12:26:22.841Z,3.97
2023-12-26T12:29:45.889Z,3.28
2023-12-26T12:33:09.227Z,3.13
2023-12-26T12:36:32.127Z,3.65
2023-12-26T12:39:55.054Z,3.17
2023-12-26T12:43:17.972Z,3.85
2023-12-26T12:46:41.136Z,3.35
2023-12-26T12:50:03.924Z,3.40
2023-12-26T12:53:27.117Z,2.90
2023-12-26T12:56:50.291Z,3.40
2023-12-26T13:00:13.156Z,3.72
2023-12-26T13:03:36.550Z,3.90
2023-12-26T13:06:59.201Z,4.28
2023-12-26T13:10:22.144Z,3.60
2023-12-26T13:13:45.111Z,3.47
2023-12-26T13:17:08.153Z,3.10
2023-12-26T13:20:31.012Z,3.17
2023-12-26T13:23:54.075Z,2.50
2023-12-26T13:27:17.022Z,2.00
2023-12-26T13:30:40.227Z,2.60
2023-12-26T13:34:03.473Z,1.70
2023-12-26T13:37:26.650Z,2.28
2023-12-26T13:40:49.898Z,2.27
2023-12-26T13:44:12.976Z,2.10
2023-12-26T13:47:36.067Z,1.50
2023-12-26T13:50:58.867Z,1.60
2023-12-26T13:53:28.747Z,2.30
2023-12-26T13:55:56.819Z,2.42
2023-12-26T13:58:25.005Z,1.90
2023-12-26T14:00:52.314Z,1.83
2023-12-26T14:03:20.825Z,1.30
2023-12-26T14:05:49.440Z,1.37
2023-12-26T14:08:18.576Z,1.98
2023-12-26T14:10:47.966Z,1.70
2023-12-26T14:13:16.262Z,2.60
2023-12-26T14:15:44.504Z,3.38
2023-12-26T14:18:13.380Z,3.28
2023-12-26T14:20:41.796Z,2.13
2023-12-26T14:23:09.843Z,2.30
2023-12-26T14:25:38.220Z,3.30
2023-12-26T14:28:07.900Z,3.30
2023-12-26T14:30:38.857Z,4.17
2023-12-26T14:33:07.205Z,3.73
2023-12-26T14:35:35.702Z,2.30
2023-12-26T14:38:03.737Z,2.10
2023-12-26T14:40:31.778Z,1.90
2023-12-26T14:42:59.601Z,2.13
2023-12-26T14:45:29.159Z,2.07
2023-12-26T14:47:57.249Z,2.67
2023-12-26T14:50:25.526Z,2.13
2023-12-26T14:52:53.870Z,2.13
2023-12-26T14:55:22.402Z,2.13
2023-12-26T14:57:50.335Z,2.00
2023-12-26T15:00:18.184Z,2.17
2023-12-26T15:02:58.416Z,2.47
2023-12-26T15:05:27.199Z,2.10
2023-12-26T15:07:55.128Z,2.63
2023-12-26T15:10:23.006Z,2.43
2023-12-26T15:12:50.873Z,2.90
2023-12-26T15:15:18.704Z,3.77
2023-12-26T15:17:48.127Z,3.10
2023-12-26T15:20:16.081Z,4.53
2023-12-26T15:22:43.921Z,3.80
2023-12-26T15:25:11.749Z,3.13
2023-12-26T15:27:39.645Z,2.50
2023-12-26T15:30:10.752Z,2.80
2023-12-26T15:32:39.662Z,3.57
2023-12-26T15:35:10.266Z,2.87
2023-12-26T15:37:38.175Z,2.33
2023-12-26T15:40:07.514Z,2.07
2023-12-26T15:42:38.638Z,2.00
2023-12-26T15:45:07.513Z,2.20
2023-12-26T15:47:35.695Z,2.93
2023-12-26T15:50:03.690Z,2.50
2023-12-26T15:52:33.293Z,2.40
2023-12-26T15:55:01.372Z,3.30
2023-12-26T15:57:29.365Z,3.10
2023-12-26T15:59:57.204Z,4.63
2023-12-26T16:02:25.086Z,5.13
2023-12-26T16:07:24.690Z,4.00
2023-12-26T16:09:54.043Z,4.17
2023-12-26T16:12:22.348Z,4.07
2023-12-26T16:14:50.621Z,4.33
2023-12-26T16:17:18.481Z,3.63
2023-12-26T16:19:46.510Z,4.70
2023-12-26T16:22:14.580Z,4.23
2023-12-26T16:24:42.391Z,4.20
2023-12-26T16:27:12.542Z,4.83
2023-12-26T16:29:40.376Z,4.50
2023-12-26T16:32:08.290Z,4.70
2023-12-26T16:34:36.592Z,4.00
2023-12-26T16:37:04.650Z,4.73
2023-12-26T16:39:32.583Z,5.60
2023-12-26T16:42:02.431Z,5.80
2023-12-26T16:44:31.648Z,6.30
2023-12-26T16:46:59.456Z,6.87
2023-12-26T16:49:27.541Z,6.60
2023-12-26T16:51:55.522Z,6.07
2023-12-26T16:54:23.464Z,5.00
2023-12-26T16:56:51.314Z,4.90
2023-12-26T16:59:19.441Z,5.70
2023-12-26T17:01:48.733Z,5.63
2023-12-26T17:04:16.759Z,4.70
2023-12-26T17:06:45.391Z,5.27
2023-12-26T17:09:13.608Z,4.47
2023-12-26T17:11:45.492Z,4.20
2023-12-26T17:14:13.544Z,4.60
2023-12-26T17:16:42.503Z,5.27
2023-12-26T17:19:11.935Z,4.93
2023-12-26T17:21:41.404Z,4.70
2023-12-26T17:24:09.919Z,5.07
2023-12-26T17:26:39.399Z,4.57
2023-12-26T17:29:08.100Z,5.17
2023-12-26T17:31:52.942Z,4.83
2023-12-26T17:34:22.420Z,4.43
2023-12-26T17:36:50.735Z,4.47
2023-12-26T17:39:19.574Z,4.63
2023-12-26T17:41:47.805Z,4.30
2023-12-26T17:44:16.152Z,5.10
2023-12-26T17:46:44.425Z,4.93
2023-12-26T17:49:12.567Z,5.73
2023-12-26T17:51:41.932Z,6.50
2023-12-26T17:54:09.998Z,9.53
2023-12-26T17:56:38.162Z,11.40
2023-12-26T17:59:06.611Z,9.73
2023-12-26T18:01:36.726Z,7.73
2023-12-26T18:04:04.805Z,4.57
2023-12-26T18:06:32.910Z,5.37
2023-12-26T18:09:02.484Z,5.13
2023-12-26T18:11:30.505Z,5.70
2023-12-26T18:13:59.303Z,20.70
2023-12-26T18:16:27.578Z,18.70
2023-12-26T18:18:56.670Z,17.20
2023-12-26T18:21:24.803Z,12.73
2023-12-26T18:23:53.454Z,10.00
2023-12-26T18:26:22.667Z,9.83
2023-12-26T18:28:50.538Z,10.53
2023-12-26T18:31:20.503Z,10.27
2023-12-26T18:33:48.463Z,9.30
2023-12-26T18:36:15.582Z,9.53
2023-12-26T18:38:43.344Z,8.47
2023-12-26T18:41:13.355Z,8.13
2023-12-26T18:43:42.565Z,13.67
2023-12-26T18:46:12.532Z,13.57
2023-12-26T18:48:41.972Z,11.27
2023-12-26T18:51:10.165Z,9.30
2023-12-26T18:53:38.577Z,8.30
2023-12-26T18:56:13.527Z,7.27
2023-12-26T18:58:42.740Z,6.90
2023-12-26T19:01:11.519Z,10.70
2023-12-26T19:03:41.257Z,8.33
2023-12-26T19:06:09.409Z,6.80
2023-12-26T19:08:37.987Z,5.63
2023-12-26T19:11:07.248Z,4.67
2023-12-26T19:13:35.568Z,8.47
2023-12-26T19:16:05.220Z,24.83
2023-12-26T19:18:33.537Z,18.50
2023-12-26T19:21:01.736Z,18.33
2023-12-26T19:23:29.665Z,16.30
2023-12-26T19:25:57.481Z,12.30
2023-12-26T19:28:25.301Z,10.40
2023-12-26T19:30:53.336Z,9.30
2023-12-26T19:33:23.158Z,7.33
2023-12-26T19:35:51.170Z,6.73
2023-12-26T19:38:20.892Z,21.80
2023-12-26T19:40:50.266Z,28.87
2023-12-26T19:43:18.098Z,19.97
2023-12-26T19:45:45.884Z,27.20
2023-12-26T19:48:14.014Z,39.20
2023-12-26T19:50:43.274Z,32.13
2023-12-26T19:53:11.156Z,15.37
2023-12-26T19:55:39.007Z,12.03
2023-12-26T19:58:06.817Z,8.67
2023-12-26T20:00:34.707Z,6.57
2023-12-26T20:03:08.712Z,5.67
2023-12-26T20:05:44.845Z,5.20
2023-12-26T20:08:13.478Z,5.53
2023-12-26T20:10:41.388Z,5.43
2023-12-26T20:13:10.618Z,5.30
2023-12-26T20:15:38.788Z,5.73
2023-12-26T20:18:06.964Z,6.27
2023-12-26T20:20:34.797Z,6.50
2023-12-26T20:23:04.427Z,7.40
2023-12-26T20:25:32.332Z,7.17
2023-12-26T20:28:01.968Z,6.03
2023-12-26T20:30:29.872Z,4.90
2023-12-26T20:32:58.463Z,5.50
2023-12-26T20:35:26.236Z,4.53
2023-12-26T20:37:54.087Z,4.50
2023-12-26T20:40:23.379Z,3.57
2023-12-26T20:42:51.463Z,4.27
2023-12-26T20:45:19.630Z,5.27
2023-12-26T20:47:48.141Z,4.93
2023-12-26T20:50:15.976Z,6.23
2023-12-26T20:52:43.655Z,6.13
2023-12-26T20:55:12.176Z,6.00
2023-12-26T20:57:41.343Z,6.03
2023-12-26T21:00:10.542Z,4.07
2023-12-26T21:02:38.754Z,5.23
2023-12-26T21:05:06.558Z,5.23
2023-12-26T21:07:34.481Z,4.93
2023-12-26T21:10:06.464Z,5.00
2023-12-26T21:12:34.561Z,5.60
2023-12-26T21:15:03.731Z,5.57
2023-12-26T21:17:31.440Z,5.70
2023-12-26T21:19:59.349Z,6.40
2023-12-26T21:22:27.112Z,6.37
2023-12-26T21:24:54.828Z,5.57
2023-12-26T21:27:22.602Z,5.70
2023-12-26T21:29:52.080Z,5.83
2023-12-26T21:32:21.495Z,5.87
2023-12-26T21:34:49.295Z,6.00
2023-12-26T21:37:17.109Z,5.63
2023-12-26T21:39:44.900Z,6.00
2023-12-26T21:42:12.656Z,7.33
2023-12-26T21:44:43.956Z,7.77
2023-12-26T21:47:14.048Z,7.37
2023-12-26T21:49:44.432Z,7.13
2023-12-26T21:52:12.167Z,6.53
2023-12-26T21:54:40.637Z,7.50
2023-12-26T21:57:08.581Z,8.27
2023-12-26T21:59:37.922Z,7.50
2023-12-26T22:02:06.575Z,8.90
2023-12-26T22:04:34.477Z,8.20
2023-12-26T22:07:04.080Z,8.33
2023-12-26T22:09:32.973Z,10.20
2023-12-26T22:12:01.206Z,12.17
2023-12-26T22:14:29.032Z,11.73
2023-12-26T22:16:56.898Z,10.73
2023-12-26T22:19:24.727Z,9.00
2023-12-26T22:21:52.503Z,8.50
2023-12-26T22:24:21.889Z,8.50
2023-12-26T22:26:49.787Z,8.13
2023-12-26T22:29:17.613Z,8.77
2023-12-26T22:31:45.416Z,11.00
2023-12-26T22:34:13.648Z,11.53
2023-12-26T22:36:41.941Z,9.27
2023-12-26T22:39:10.169Z,10.03
2023-12-26T22:41:39.486Z,9.47
2023-12-26T22:44:07.813Z,9.77
2023-12-26T22:46:35.753Z,9.23
2023-12-26T22:49:03.556Z,9.43
2023-12-26T22:51:31.318Z,8.77
2023-12-26T22:53:59.484Z,9.53
2023-12-26T22:56:27.222Z,9.90
2023-12-26T22:58:56.406Z,9.73
2023-12-26T23:01:24.410Z,10.67
2023-12-26T23:03:52.437Z,33.70
2023-12-26T23:06:20.409Z,33.20
2023-12-26T23:08:48.084Z,25.87
2023-12-26T23:11:20.030Z,12.97
2023-12-26T23:13:50.574Z,11.80
2023-12-26T23:16:19.690Z,10.93
2023-12-26T23:18:48.584Z,10.10
2023-12-26T23:21:17.936Z,9.23
2023-12-26T23:23:45.747Z,9.70
2023-12-26T23:26:20.794Z,9.57
2023-12-26T23:28:48.612Z,10.07
2023-12-26T23:31:17.094Z,11.57
2023-12-26T23:33:46.346Z,12.33
2023-12-26T23:36:14.544Z,13.73
2023-12-26T23:38:43.880Z,17.67
2023-12-26T23:41:11.769Z,16.77
2023-12-26T23:43:39.650Z,14.50
2023-12-26T23:46:10.551Z,14.80
2023-12-26T23:48:40.702Z,13.70
2023-12-26T23:51:10.069Z,11.70
2023-12-26T23:53:37.947Z,11.53
2023-12-26T23:56:06.566Z,10.77
2023-12-26T23:58:34.596Z,10.83
